createdAt,value
2022-10-20T00:00:33.535Z,86.58
2022-10-20T00:03:05.555Z,86.64
2022-10-20T00:05:37.472Z,86.14
2022-10-20T00:08:09.538Z,86.23
2022-10-20T00:10:41.547Z,85.88
2022-10-20T00:13:13.463Z,85.63
2022-10-20T00:15:53.587Z,85.04
2022-10-20T00:18:26.888Z,85.15
2022-10-20T00:20:58.800Z,85.20
2022-10-20T00:23:30.775Z,85.37
2022-10-20T00:26:10.566Z,85.58
2022-10-20T00:28:43.960Z,85.56
2022-10-20T00:31:16.785Z,85.66
2022-10-20T00:33:48.955Z,85.04
2022-10-20T00:36:23.193Z,84.98
2022-10-20T00:39:04.489Z,85.20
2022-10-20T00:41:36.480Z,85.27
2022-10-20T00:44:53.662Z,84.94
2022-10-20T00:48:01.123Z,84.92
2022-10-20T00:50:42.026Z,85.43
2022-10-20T00:53:13.960Z,84.98
2022-10-20T00:55:51.239Z,84.61
2022-10-20T00:58:23.383Z,84.91
2022-10-20T01:00:59.217Z,85.13
2022-10-20T01:03:42.180Z,84.44
2022-10-20T01:06:18.941Z,84.29
2022-10-20T01:08:53.164Z,84.82
2022-10-20T01:11:47.671Z,83.95
2022-10-20T01:14:56.142Z,84.47
2022-10-20T01:17:53.695Z,83.93
2022-10-20T01:20:46.232Z,83.19
2022-10-20T01:23:50.545Z,83.83
2022-10-20T01:26:42.721Z,84.36
2022-10-20T01:30:11.501Z,83.60
2022-10-20T01:32:58.289Z,83.39
2022-10-20T01:35:48.214Z,84.29
2022-10-20T01:38:39.386Z,84.07
2022-10-20T01:41:34.696Z,83.37
2022-10-20T01:44:11.917Z,83.17
2022-10-20T01:46:45.449Z,82.59
2022-10-20T01:49:17.599Z,82.76
2022-10-20T01:51:49.562Z,83.07
2022-10-20T01:54:28.733Z,82.75
2022-10-20T01:57:30.412Z,82.71
2022-10-20T02:00:14.876Z,83.17
2022-10-20T02:03:04.738Z,82.86
2022-10-20T02:06:14.211Z,83.06
2022-10-20T02:08:54.605Z,83.29
2022-10-20T02:11:31.289Z,83.92
2022-10-20T02:14:05.298Z,83.88
2022-10-20T02:16:51.345Z,83.85
2022-10-20T02:19:26.996Z,83.64
2022-10-20T02:21:59.340Z,83.01
2022-10-20T02:24:38.724Z,83.69
2022-10-20T02:27:24.976Z,83.20
2022-10-20T02:30:08.898Z,83.84
2022-10-20T02:32:44.542Z,84.34
2022-10-20T02:35:29.558Z,84.39
2022-10-20T02:38:02.411Z,84.33
2022-10-20T02:40:34.336Z,84.18
2022-10-20T02:43:06.222Z,84.71
2022-10-20T02:45:38.331Z,85.61
2022-10-20T02:48:10.288Z,85.55
2022-10-20T02:50:42.171Z,85.54
2022-10-20T02:53:14.105Z,86.01
2022-10-20T02:55:46.058Z,86.16
2022-10-20T02:58:17.980Z,86.38
2022-10-20T03:00:50.880Z,86.05
2022-10-20T03:03:22.780Z,86.52
2022-10-20T03:05:54.831Z,86.79
2022-10-20T03:08:26.754Z,86.51
2022-10-20T03:10:58.704Z,86.17
2022-10-20T03:13:30.788Z,86.14
2022-10-20T03:16:02.911Z,86.33
2022-10-20T03:18:34.826Z,86.55
2022-10-20T03:21:06.819Z,86.41
2022-10-20T03:23:38.781Z,86.37
2022-10-20T03:26:12.149Z,86.39
2022-10-20T03:28:44.076Z,86.70
2022-10-20T03:31:15.972Z,86.55
2022-10-20T03:33:47.906Z,86.38
2022-10-20T03:36:19.831Z,86.79
2022-10-20T03:38:51.753Z,85.99
2022-10-20T03:41:23.846Z,85.73
2022-10-20T03:43:55.728Z,85.43
2022-10-20T03:46:27.747Z,84.59
2022-10-20T03:48:59.659Z,85.33
2022-10-20T03:51:31.568Z,85.53
2022-10-20T03:54:03.592Z,85.53
2022-10-20T03:56:35.555Z,85.02
2022-10-20T03:59:07.526Z,84.86
2022-10-20T04:01:43.634Z,84.61
2022-10-20T04:04:15.738Z,84.29
2022-10-20T04:06:47.792Z,84.29
2022-10-20T04:09:19.744Z,83.95
2022-10-20T04:11:51.641Z,84.53
2022-10-20T04:14:23.599Z,84.70
2022-10-20T04:16:55.545Z,84.33
2022-10-20T04:19:27.426Z,83.75
2022-10-20T04:21:59.348Z,84.31
2022-10-20T04:24:31.381Z,84.44
2022-10-20T04:27:03.661Z,84.07
2022-10-20T04:29:35.654Z,83.73
2022-10-20T04:32:07.664Z,83.13
2022-10-20T04:34:39.617Z,83.24
2022-10-20T04:37:11.536Z,82.73
2022-10-20T04:39:43.604Z,83.43
2022-10-20T04:42:15.508Z,83.47
2022-10-20T04:44:47.473Z,83.68
2022-10-20T04:47:19.430Z,83.94
2022-10-20T04:49:51.361Z,83.54
2022-10-20T04:52:23.312Z,82.67
2022-10-20T04:54:55.349Z,83.73
2022-10-20T04:57:27.449Z,83.75
2022-10-20T04:59:59.405Z,82.86
2022-10-20T05:02:31.421Z,83.80
2022-10-20T05:05:05.029Z,83.80
2022-10-20T05:07:37.343Z,84.00
2022-10-20T05:10:09.981Z,83.80
2022-10-20T05:12:41.934Z,83.47
2022-10-20T05:15:13.892Z,83.46
2022-10-20T05:17:45.815Z,83.73
2022-10-20T05:20:17.821Z,83.12
2022-10-20T05:22:49.816Z,83.22
2022-10-20T05:25:36.204Z,83.28
2022-10-20T05:28:08.871Z,83.70
2022-10-20T05:33:33.296Z,82.71
2022-10-20T05:36:18.132Z,83.11
2022-10-20T05:38:55.246Z,83.41
2022-10-20T05:41:33.397Z,83.31
2022-10-20T05:44:11.077Z,83.55
2022-10-20T05:46:43.039Z,82.97
2022-10-20T05:49:17.637Z,83.48
2022-10-20T05:51:49.765Z,82.60
2022-10-20T05:54:21.827Z,81.91
2022-10-20T05:56:53.728Z,82.90
2022-10-20T05:59:25.768Z,83.07
2022-10-20T06:01:57.658Z,83.17
2022-10-20T06:04:31.344Z,83.14
2022-10-20T06:07:05.803Z,83.04
2022-10-20T06:09:39.136Z,83.55
2022-10-20T06:12:11.034Z,83.32
2022-10-20T06:14:43.027Z,83.24
2022-10-20T06:17:15.223Z,83.01
2022-10-20T06:19:47.287Z,82.21
2022-10-20T06:22:19.189Z,82.96
2022-10-20T06:24:51.139Z,82.77
2022-10-20T06:27:23.062Z,83.20
2022-10-20T06:29:55.050Z,83.36
2022-10-20T06:32:26.949Z,83.55
2022-10-20T06:34:58.852Z,83.30
2022-10-20T06:37:30.803Z,82.28
2022-10-20T06:40:02.973Z,82.51
2022-10-20T06:42:35.306Z,82.14
2022-10-20T06:45:08.755Z,82.20
2022-10-20T06:47:40.744Z,82.23
2022-10-20T06:50:12.755Z,81.84
2022-10-20T06:52:44.976Z,81.59
2022-10-20T06:55:17.000Z,82.11
2022-10-20T06:57:48.918Z,82.29
2022-10-20T07:00:21.874Z,82.69
2022-10-20T07:02:53.802Z,82.87
2022-10-20T07:05:25.729Z,83.07
2022-10-20T07:07:57.753Z,82.65
2022-10-20T07:10:29.669Z,82.03
2022-10-20T07:13:01.577Z,81.40
2022-10-20T07:15:34.739Z,81.63
2022-10-20T07:18:07.343Z,81.65
2022-10-20T07:20:42.993Z,81.20
2022-10-20T07:23:16.485Z,81.47
2022-10-20T07:25:48.649Z,81.03
2022-10-20T07:28:21.906Z,80.36
2022-10-20T07:30:53.933Z,79.44
2022-10-20T07:33:25.904Z,78.90
2022-10-20T07:35:57.944Z,79.87
2022-10-20T07:38:29.849Z,79.60
2022-10-20T07:41:03.456Z,79.69
2022-10-20T07:43:37.004Z,78.27
2022-10-20T07:46:11.488Z,78.62
2022-10-20T07:48:43.485Z,79.57
2022-10-20T07:51:31.007Z,78.15
2022-10-20T07:54:08.445Z,76.96
2022-10-20T07:56:43.247Z,76.82
2022-10-20T07:59:15.561Z,77.47
2022-10-20T08:01:47.720Z,77.29
2022-10-20T08:04:19.627Z,77.49
2022-10-20T08:06:51.595Z,77.14
2022-10-20T08:09:24.185Z,76.73
2022-10-20T08:11:56.308Z,77.08
2022-10-20T08:14:31.932Z,77.02
2022-10-20T08:17:04.526Z,77.58
2022-10-20T08:22:22.359Z,77.52
2022-10-20T08:24:54.364Z,77.12
2022-10-20T08:27:26.296Z,76.96
2022-10-20T08:30:06.282Z,77.12
2022-10-20T08:32:44.350Z,76.85
2022-10-20T08:35:16.263Z,75.58
2022-10-20T08:37:51.182Z,75.56
2022-10-20T08:40:29.893Z,75.31
2022-10-20T08:43:02.008Z,74.83
2022-10-20T08:45:38.330Z,74.70
2022-10-20T08:48:19.434Z,74.58
2022-10-20T08:50:53.453Z,74.54
2022-10-20T08:53:27.718Z,75.00
2022-10-20T08:55:59.682Z,75.57
2022-10-20T08:58:31.674Z,74.89
2022-10-20T09:01:21.851Z,72.87
2022-10-20T09:04:18.791Z,73.28
2022-10-20T09:07:05.830Z,73.77
2022-10-20T09:09:38.026Z,73.16
2022-10-20T09:12:15.064Z,72.63
2022-10-20T09:14:47.015Z,72.95
2022-10-20T09:17:19.811Z,72.63
2022-10-20T09:19:59.108Z,71.91
2022-10-20T09:22:35.920Z,71.23
2022-10-20T09:25:20.104Z,71.31
2022-10-20T09:27:58.364Z,68.92
2022-10-20T09:30:30.267Z,69.80
2022-10-20T09:33:35.072Z,68.64
2022-10-20T09:36:22.138Z,67.39
2022-10-20T09:38:55.376Z,67.74
2022-10-20T09:41:32.348Z,67.75
2022-10-20T09:44:15.768Z,68.71
2022-10-20T09:46:51.676Z,68.84
2022-10-20T09:49:37.393Z,69.17
2022-10-20T09:52:34.272Z,67.62
2022-10-20T09:55:30.218Z,67.28
2022-10-20T09:58:05.272Z,67.32
2022-10-20T10:00:44.959Z,66.99
2022-10-20T10:03:22.669Z,66.19
2022-10-20T10:05:58.111Z,66.46
2022-10-20T10:08:54.934Z,64.26
2022-10-20T10:11:35.928Z,64.40
2022-10-20T10:14:23.691Z,61.69
2022-10-20T10:16:56.332Z,58.21
2022-10-20T10:19:32.557Z,56.51
2022-10-20T10:22:05.051Z,55.25
2022-10-20T10:24:40.245Z,55.19
2022-10-20T10:27:28.869Z,55.12
2022-10-20T10:30:33.142Z,55.30
2022-10-20T10:33:37.509Z,58.46
2022-10-20T10:36:28.276Z,58.50
2022-10-20T10:39:00.982Z,59.24
2022-10-20T10:42:19.261Z,61.54
2022-10-20T10:45:19.536Z,61.44
2022-10-20T10:48:19.336Z,61.17
2022-10-20T10:50:59.035Z,60.09
2022-10-20T10:54:16.064Z,60.39
2022-10-20T10:56:59.756Z,62.17
2022-10-20T10:59:43.683Z,61.90
2022-10-20T11:02:33.016Z,62.41
2022-10-20T11:05:19.183Z,62.59
2022-10-20T11:08:19.157Z,61.19
2022-10-20T11:11:20.218Z,63.13
2022-10-20T11:14:28.722Z,61.66
2022-10-20T11:17:39.297Z,60.86
2022-10-20T11:20:35.339Z,59.95
2022-10-20T11:23:40.692Z,60.92
2022-10-20T11:26:26.741Z,61.66
2022-10-20T11:29:05.784Z,60.65
2022-10-20T11:31:52.059Z,60.42
2022-10-20T11:34:58.165Z,60.56
2022-10-20T11:37:50.028Z,60.61
2022-10-20T11:40:35.676Z,61.52
2022-10-20T11:43:36.143Z,61.61
2022-10-20T11:46:22.184Z,60.26
2022-10-20T11:48:58.109Z,61.24
2022-10-20T11:51:31.988Z,60.95
2022-10-20T11:54:49.367Z,60.16
2022-10-20T11:57:33.045Z,59.79
2022-10-20T12:00:33.877Z,58.76
2022-10-20T12:03:33.494Z,58.58
2022-10-20T12:06:46.613Z,57.42
2022-10-20T12:09:48.062Z,58.12
2022-10-20T12:13:13.182Z,59.78
2022-10-20T12:15:51.531Z,58.17
2022-10-20T12:18:34.289Z,58.67
2022-10-20T12:21:10.543Z,59.94
2022-10-20T12:23:45.689Z,59.27
2022-10-20T12:27:08.141Z,60.66
2022-10-20T12:29:43.015Z,60.06
2022-10-20T12:32:55.513Z,60.03
2022-10-20T12:35:30.329Z,60.50
2022-10-20T12:38:04.648Z,59.50
2022-10-20T12:40:50.533Z,59.04
2022-10-20T12:43:28.907Z,59.15
2022-10-20T12:49:22.873Z,60.14
2022-10-20T12:51:57.869Z,60.47
2022-10-20T12:54:40.557Z,60.43
2022-10-20T12:57:41.416Z,59.58
2022-10-20T13:00:19.160Z,60.26
2022-10-20T13:02:52.789Z,60.86
2022-10-20T13:05:44.283Z,61.73
2022-10-20T13:08:19.197Z,62.21
2022-10-20T13:10:53.965Z,62.27
2022-10-20T13:13:25.844Z,61.08
2022-10-20T13:15:58.544Z,62.08
2022-10-20T13:18:47.354Z,61.86
2022-10-20T13:21:34.016Z,61.51
2022-10-20T13:24:24.728Z,62.20
2022-10-20T13:27:04.242Z,61.94
2022-10-20T13:29:43.740Z,63.28
2022-10-20T13:33:10.831Z,62.73
2022-10-20T13:35:53.069Z,63.50
2022-10-20T13:38:43.571Z,63.20
2022-10-20T13:41:49.382Z,63.09
2022-10-20T13:44:32.245Z,64.37
2022-10-20T13:47:50.221Z,63.16
2022-10-20T13:51:11.124Z,64.77
2022-10-20T13:53:46.486Z,64.89
2022-10-20T13:56:18.412Z,65.62
2022-10-20T13:59:06.756Z,65.80
2022-10-20T14:01:38.667Z,64.71
2022-10-20T14:04:30.620Z,65.42
2022-10-20T14:07:16.799Z,65.06
2022-10-20T14:09:58.339Z,65.90
2022-10-20T14:12:32.581Z,66.01
2022-10-20T14:15:07.107Z,66.56
2022-10-20T14:17:40.864Z,66.08
2022-10-20T14:20:22.269Z,66.25
2022-10-20T14:22:55.004Z,67.02
2022-10-20T14:25:28.978Z,67.06
2022-10-20T14:28:05.138Z,67.39
2022-10-20T14:30:41.101Z,67.67
2022-10-20T14:33:16.932Z,68.27
2022-10-20T14:35:58.625Z,68.04
2022-10-20T14:38:39.074Z,68.70
2022-10-20T14:41:11.030Z,68.46
2022-10-20T14:43:48.053Z,69.14
2022-10-20T14:46:36.117Z,69.09
2022-10-20T14:49:36.180Z,68.69
2022-10-20T14:52:20.357Z,69.16
2022-10-20T14:54:53.607Z,69.33
2022-10-20T14:57:26.080Z,69.20
2022-10-20T15:00:26.695Z,70.09
2022-10-20T15:03:03.421Z,70.81
2022-10-20T15:05:45.385Z,70.64
2022-10-20T15:08:26.801Z,70.57
2022-10-20T15:10:59.702Z,70.67
2022-10-20T15:13:34.000Z,72.24
2022-10-20T15:16:08.065Z,75.19
2022-10-20T15:18:40.187Z,77.67
2022-10-20T15:21:12.197Z,79.45
2022-10-20T15:23:44.266Z,79.70
2022-10-20T15:26:16.242Z,80.94
2022-10-20T15:28:50.653Z,80.68
2022-10-20T15:31:27.028Z,81.69
2022-10-20T15:33:59.360Z,82.54
2022-10-20T15:36:34.209Z,82.95
2022-10-20T15:39:06.437Z,85.06
2022-10-20T15:41:39.479Z,84.79
2022-10-20T15:44:19.681Z,85.12
2022-10-20T15:46:55.732Z,85.25
2022-10-20T15:49:27.651Z,86.02
2022-10-20T15:51:59.568Z,86.71
2022-10-20T15:54:31.465Z,86.39
2022-10-20T15:57:03.414Z,87.35
2022-10-20T15:59:35.449Z,87.92
2022-10-20T16:02:13.202Z,87.18
2022-10-20T16:04:45.101Z,87.17
2022-10-20T16:07:16.987Z,87.93
2022-10-20T16:09:49.042Z,88.02
2022-10-20T16:12:21.056Z,86.72
2022-10-20T16:14:53.630Z,87.68
2022-10-20T16:17:25.778Z,88.12
2022-10-20T16:19:57.732Z,87.07
2022-10-20T16:22:29.741Z,88.03
2022-10-20T16:25:02.074Z,88.27
2022-10-20T16:27:34.295Z,88.65
2022-10-20T16:30:07.784Z,91.05
2022-10-20T16:32:40.077Z,92.02
2022-10-20T16:35:12.356Z,93.09
2022-10-20T16:37:44.242Z,95.01
2022-10-20T16:40:16.421Z,95.08
2022-10-20T16:42:48.748Z,95.12
2022-10-20T16:45:20.769Z,96.66
2022-10-20T16:47:53.098Z,95.89
2022-10-20T16:50:25.216Z,97.22
2022-10-20T16:52:57.197Z,98.07
2022-10-20T16:55:29.197Z,100.00
2022-10-20T16:58:01.405Z,100.00
2022-10-20T17:00:33.343Z,100.00
2022-10-20T17:03:05.285Z,100.00
2022-10-20T17:05:40.282Z,100.00
2022-10-20T17:08:13.926Z,100.00
2022-10-20T17:10:47.520Z,100.00
2022-10-20T17:13:19.994Z,100.00
2022-10-20T17:15:52.304Z,100.00
2022-10-20T17:18:24.788Z,100.00
2022-10-20T17:20:57.037Z,100.00
2022-10-20T17:23:37.327Z,100.00
2022-10-20T17:26:17.683Z,100.00
2022-10-20T17:28:50.269Z,100.00
2022-10-20T17:31:22.853Z,100.00
2022-10-20T17:33:56.411Z,100.00
2022-10-20T17:36:29.595Z,99.76
2022-10-20T17:39:08.869Z,99.85
2022-10-20T17:41:41.003Z,98.57
2022-10-20T17:44:13.088Z,100.00
2022-10-20T17:46:48.846Z,100.00
2022-10-20T17:49:20.848Z,99.73
2022-10-20T17:51:52.741Z,99.78
2022-10-20T17:54:27.457Z,99.98
2022-10-20T17:56:59.414Z,100.00
2022-10-20T17:59:42.356Z,100.00
2022-10-20T18:02:24.771Z,100.00
2022-10-20T18:04:57.321Z,100.00
2022-10-20T18:07:29.739Z,100.00
2022-10-20T18:10:01.738Z,100.00
2022-10-20T18:12:36.409Z,100.00
2022-10-20T18:15:09.013Z,100.00
2022-10-20T18:17:41.003Z,100.00
2022-10-20T18:20:13.167Z,100.00
2022-10-20T18:22:45.632Z,100.00
2022-10-20T18:25:17.640Z,100.00
2022-10-20T18:27:49.575Z,100.00
2022-10-20T18:30:21.488Z,100.00
2022-10-20T18:32:53.494Z,100.00
2022-10-20T18:35:25.494Z,100.00
2022-10-20T18:37:57.777Z,100.00
2022-10-20T18:40:29.725Z,100.00
2022-10-20T18:43:01.863Z,100.00
2022-10-20T18:45:33.862Z,100.00
2022-10-20T18:48:06.138Z,100.00
2022-10-20T18:50:38.058Z,100.00
2022-10-20T18:53:10.088Z,100.00
2022-10-20T18:55:41.999Z,100.00
2022-10-20T18:58:13.978Z,100.00
2022-10-20T19:00:45.975Z,100.00
2022-10-20T19:03:18.094Z,100.00
2022-10-20T19:05:50.414Z,100.00
2022-10-20T19:08:22.538Z,100.00
2022-10-20T19:10:54.672Z,100.00
2022-10-20T19:13:30.662Z,100.00
2022-10-20T19:16:12.095Z,100.00
2022-10-20T19:18:50.134Z,100.00
2022-10-20T19:21:24.271Z,100.00
2022-10-20T19:24:07.265Z,100.00
2022-10-20T19:26:43.061Z,100.00
2022-10-20T19:29:17.994Z,100.00
2022-10-20T19:32:00.253Z,100.00
2022-10-20T19:34:41.940Z,100.00
2022-10-20T19:37:13.895Z,100.00
2022-10-20T19:39:45.886Z,100.00
2022-10-20T19:42:17.881Z,100.00
2022-10-20T19:44:50.076Z,100.00
2022-10-20T19:47:22.786Z,100.00
2022-10-20T19:49:54.737Z,100.00
2022-10-20T19:52:26.737Z,100.00
2022-10-20T19:54:58.758Z,100.00
2022-10-20T19:57:31.082Z,100.00
2022-10-20T20:00:04.316Z,100.00
2022-10-20T20:02:37.587Z,100.00
2022-10-20T20:05:09.805Z,100.00
2022-10-20T20:07:41.955Z,100.00
2022-10-20T20:10:14.018Z,100.00
2022-10-20T20:12:45.920Z,100.00
2022-10-20T20:15:18.031Z,100.00
2022-10-20T20:17:49.988Z,100.00
2022-10-20T20:20:22.789Z,100.00
2022-10-20T20:22:55.271Z,100.00
2022-10-20T20:25:27.344Z,100.00
2022-10-20T20:27:59.337Z,100.00
2022-10-20T20:30:32.577Z,100.00
2022-10-20T20:33:05.046Z,100.00
2022-10-20T20:35:37.009Z,100.00
2022-10-20T20:38:08.972Z,100.00
2022-10-20T20:40:46.672Z,100.00
2022-10-20T20:43:18.826Z,100.00
2022-10-20T20:45:50.736Z,100.00
2022-10-20T20:48:23.073Z,100.00
2022-10-20T20:50:57.210Z,100.00
2022-10-20T20:53:29.441Z,100.00
2022-10-20T20:56:12.087Z,100.00
2022-10-20T20:58:49.131Z,100.00
2022-10-20T21:01:31.736Z,100.00
2022-10-20T21:04:10.276Z,100.00
2022-10-20T21:07:01.214Z,100.00
2022-10-20T21:09:34.790Z,100.00
2022-10-20T21:12:06.798Z,100.00
2022-10-20T21:14:39.593Z,100.00
2022-10-20T21:17:11.756Z,100.00
2022-10-20T21:19:43.969Z,100.00
2022-10-20T21:22:15.959Z,100.00
2022-10-20T21:24:47.948Z,100.00
2022-10-20T21:27:19.923Z,100.00
2022-10-20T21:29:51.978Z,100.00
2022-10-20T21:32:23.909Z,100.00
2022-10-20T21:34:55.920Z,100.00
2022-10-20T21:37:28.875Z,100.00
2022-10-20T21:40:00.979Z,100.00
2022-10-20T21:42:32.973Z,100.00
2022-10-20T21:45:05.397Z,100.00
2022-10-20T21:47:37.309Z,100.00
2022-10-20T21:50:09.425Z,100.00
2022-10-20T21:52:41.428Z,100.00
2022-10-20T21:55:13.715Z,100.00
2022-10-20T21:57:45.695Z,100.00
2022-10-20T22:00:21.833Z,100.00
2022-10-20T22:02:55.947Z,100.00
2022-10-20T22:05:28.051Z,100.00
2022-10-20T22:08:00.030Z,100.00
2022-10-20T22:10:31.996Z,100.00
2022-10-20T22:13:04.852Z,100.00
2022-10-20T22:15:38.646Z,100.00
2022-10-20T22:18:10.762Z,100.00
2022-10-20T22:20:42.936Z,100.00
2022-10-20T22:23:15.269Z,100.00
2022-10-20T22:25:47.234Z,100.00
2022-10-20T22:28:19.470Z,100.00
2022-10-20T22:30:51.482Z,100.00
2022-10-20T22:33:23.797Z,100.00
2022-10-20T22:35:55.813Z,100.00
2022-10-20T22:38:27.952Z,100.00
2022-10-20T22:41:01.635Z,100.00
2022-10-20T22:43:33.722Z,100.00
2022-10-20T22:46:06.075Z,100.00
2022-10-20T22:48:38.299Z,100.00
2022-10-20T22:51:11.162Z,100.00
2022-10-20T22:53:43.383Z,100.00
2022-10-20T22:56:18.982Z,100.00
2022-10-20T22:58:53.808Z,100.00
2022-10-20T23:01:25.853Z,100.00
2022-10-20T23:03:58.125Z,100.00
2022-10-20T23:06:30.063Z,100.00
2022-10-20T23:09:02.305Z,100.00
2022-10-20T23:11:35.219Z,100.00
2022-10-20T23:14:07.147Z,100.00
2022-10-20T23:16:39.062Z,100.00
2022-10-20T23:19:11.190Z,100.00
2022-10-20T23:21:43.098Z,100.00
2022-10-20T23:24:15.080Z,100.00
2022-10-20T23:26:46.979Z,100.00
2022-10-20T23:29:19.020Z,100.00
2022-10-20T23:31:50.930Z,100.00
2022-10-20T23:34:23.345Z,100.00
2022-10-20T23:36:55.311Z,100.00
2022-10-20T23:39:27.307Z,100.00
2022-10-20T23:42:02.310Z,100.00
2022-10-20T23:44:38.356Z,100.00
2022-10-20T23:47:10.239Z,100.00
2022-10-20T23:49:42.166Z,100.00
2022-10-20T23:52:14.084Z,100.00
2022-10-20T23:54:46.033Z,100.00
2022-10-20T23:57:18.130Z,100.00
2022-10-20T23:59:50.042Z,100.00
